Hlavní strana
METAR-TAF:

METAR-TAF

Letiště :

Antananarivo, Madagaskar

Letiště Antananarivo

zeměpisná šířka: 18-48S, zeměpisná délka: 047-29E, výška: 1279 m

Aktuální stav počasí

Zpráva byla vytvořena před 33 minutami, v 21:30 UTC
Jihovýchodní vítr 6 kt
Teplota 16°C
Vlhkost vzduchu 88%
Tlak 1021 hPa
Viditelnost 10 km a více
Skoro jasno ve výšce 1700 ft
Oblačno až skoro zataženo ve výšce 2000 ft

METAR: FMMI 252130Z 13006KT 9999 FEW017 BKN020 16/14 Q1021 NOSIG

Čas: 01:03 (22:03 UTC)

Předpověď počasí

Zpráva byla vytvořena před 5 hodinami a 3 minutami, v 17:00 UTC
Předpověď platná od 25 v 18 UTC do 26 v 24 UTC
Jihovýchodní vítr 10 kt
Viditelnost 10 km a více
Polojasno ve výšce 1700 ft

TAF: FMMI 251700Z 2518/2624 14010KT 9999 SCT017

Stav a předpovědi počasí z více než 4 000 letišť (zprávy METAR a TAF).

Červené a žluté tečky na mapě představují dostupné meteorologické stanice.

Když kurzor umístíte na tečku, zobrazí se název stanice.

Pak kliknutím zobrazíte stav a předpověď počasí.

Chcete-li změnit mapu, kliknutím na zelené tlačítko se znaménkem +mapu přiblížíte, kliknutím na zelené tlačítko se znaménkem – mapu oddálíte a kliknutím na zelené šipky přejdete na sousední mapy.


METAR-TAF: